createdAt,value
2023-04-19T00:00:52.109Z,11.22
2023-04-19T00:03:20.141Z,11.12
2023-04-19T00:05:48.330Z,11.09
2023-04-19T00:08:19.258Z,11.05
2023-04-19T00:10:50.232Z,10.92
2023-04-19T00:13:17.970Z,10.92
2023-04-19T00:15:47.070Z,10.81
2023-04-19T00:18:14.940Z,10.74
2023-04-19T00:20:43.116Z,10.82
2023-04-19T00:23:11.366Z,10.83
2023-04-19T00:25:47.119Z,10.96
2023-04-19T00:28:17.856Z,10.94
2023-04-19T00:30:45.724Z,10.99
2023-04-19T00:33:13.617Z,11.10
2023-04-19T00:35:44.565Z,11.05
2023-04-19T00:38:13.861Z,11.01
2023-04-19T00:40:46.706Z,11.05
2023-04-19T00:43:21.289Z,11.01
2023-04-19T00:45:51.474Z,11.02
2023-04-19T00:48:19.651Z,11.05
2023-04-19T00:50:50.644Z,11.00
2023-04-19T00:53:20.900Z,11.08
2023-04-19T00:56:03.905Z,10.90
2023-04-19T00:58:42.970Z,10.86
2023-04-19T01:01:10.844Z,10.96
2023-04-19T01:03:38.894Z,10.86
2023-04-19T01:06:20.959Z,10.82
2023-04-19T01:08:49.629Z,10.75
2023-04-19T01:11:18.642Z,10.86
2023-04-19T01:16:46.466Z,10.89
2023-04-19T01:19:16.794Z,10.90
2023-04-19T01:21:44.519Z,10.98
2023-04-19T01:24:14.988Z,10.98
2023-04-19T01:26:43.195Z,11.08
2023-04-19T01:29:10.923Z,10.93
2023-04-19T01:31:38.621Z,10.90
2023-04-19T01:34:06.331Z,10.95
2023-04-19T01:36:33.887Z,11.05
2023-04-19T01:39:01.544Z,10.92
2023-04-19T01:41:34.315Z,10.86
2023-04-19T01:44:01.942Z,10.79
2023-04-19T01:46:29.648Z,10.69
2023-04-19T01:48:58.254Z,10.66
2023-04-19T01:51:25.883Z,10.77
2023-04-19T01:53:54.540Z,10.65
2023-04-19T01:56:23.120Z,10.79
2023-04-19T01:58:52.530Z,10.73
2023-04-19T02:01:20.281Z,10.55
2023-04-19T02:03:48.738Z,10.78
2023-04-19T02:06:16.849Z,10.69
2023-04-19T02:08:44.487Z,10.73
2023-04-19T02:11:14.946Z,10.80
2023-04-19T02:13:43.542Z,10.75
2023-04-19T02:16:21.828Z,10.52
2023-04-19T02:18:52.352Z,10.50
2023-04-19T02:21:20.124Z,10.36
2023-04-19T02:23:48.010Z,10.33
2023-04-19T02:26:23.126Z,10.32
2023-04-19T02:28:53.904Z,10.34
2023-04-19T02:31:23.575Z,10.40
2023-04-19T02:33:51.493Z,10.50
2023-04-19T02:36:19.269Z,10.52
2023-04-19T02:38:47.412Z,10.37
2023-04-19T02:41:15.364Z,10.41
2023-04-19T02:43:43.054Z,10.41
2023-04-19T02:46:11.405Z,10.43
2023-04-19T02:48:40.338Z,10.27
2023-04-19T02:51:09.273Z,10.40
2023-04-19T02:53:36.820Z,10.22
2023-04-19T02:56:05.186Z,10.16
2023-04-19T02:58:32.728Z,10.26
2023-04-19T03:01:02.495Z,10.31
2023-04-19T03:03:30.251Z,10.33
2023-04-19T03:05:59.378Z,10.11
2023-04-19T03:08:28.072Z,10.01
2023-04-19T03:10:58.301Z,9.97
2023-04-19T03:13:25.960Z,10.11
2023-04-19T03:15:53.599Z,10.12
2023-04-19T03:18:22.686Z,10.12
2023-04-19T03:20:52.671Z,10.12
2023-04-19T03:23:23.099Z,10.26
2023-04-19T03:25:51.089Z,10.19
2023-04-19T03:28:18.996Z,10.21
2023-04-19T03:30:47.202Z,10.12
2023-04-19T03:33:14.819Z,10.15
2023-04-19T03:35:42.445Z,10.19
2023-04-19T03:38:10.529Z,10.29
2023-04-19T03:40:42.014Z,10.23
2023-04-19T03:43:14.570Z,10.28
2023-04-19T03:45:43.752Z,10.32
2023-04-19T03:48:12.922Z,10.34
2023-04-19T03:50:40.556Z,10.36
2023-04-19T03:53:08.345Z,10.31
2023-04-19T03:55:36.270Z,10.25
2023-04-19T03:58:05.449Z,10.21
2023-04-19T04:00:33.093Z,10.35
2023-04-19T04:03:01.111Z,10.37
2023-04-19T04:05:29.293Z,10.39
2023-04-19T04:07:58.207Z,10.40
2023-04-19T04:10:25.788Z,10.46
2023-04-19T04:13:00.598Z,10.36
2023-04-19T04:15:29.895Z,10.36
2023-04-19T04:17:57.784Z,10.32
2023-04-19T04:20:25.695Z,10.37
2023-04-19T04:22:53.575Z,10.42
2023-04-19T04:25:23.028Z,10.34
2023-04-19T04:27:51.791Z,10.40
2023-04-19T04:30:19.976Z,10.36
2023-04-19T04:32:51.318Z,10.32
2023-04-19T04:35:19.128Z,10.36
2023-04-19T04:37:46.721Z,10.41
2023-04-19T04:40:14.455Z,10.42
2023-04-19T04:42:42.800Z,10.37
2023-04-19T04:45:13.967Z,10.49
2023-04-19T04:47:41.691Z,10.49
2023-04-19T04:50:19.453Z,10.50
2023-04-19T04:52:47.238Z,10.47
2023-04-19T04:55:15.280Z,10.36
2023-04-19T04:57:42.981Z,10.52
2023-04-19T05:00:12.538Z,10.43
2023-04-19T05:02:40.675Z,10.42
2023-04-19T05:05:11.182Z,10.51
2023-04-19T05:07:41.095Z,10.44
2023-04-19T05:10:09.840Z,10.46
2023-04-19T05:12:40.453Z,10.51
2023-04-19T05:15:09.204Z,10.58
2023-04-19T05:17:36.951Z,10.50
2023-04-19T05:20:05.802Z,10.56
2023-04-19T05:22:33.652Z,10.59
2023-04-19T05:25:02.760Z,10.59
2023-04-19T05:27:30.480Z,10.58
2023-04-19T05:29:58.172Z,10.70
2023-04-19T05:32:26.193Z,10.72
2023-04-19T05:34:54.116Z,10.80
2023-04-19T05:37:21.758Z,10.76
2023-04-19T05:39:50.143Z,10.66
2023-04-19T05:42:19.295Z,10.77
2023-04-19T05:44:46.988Z,10.71
2023-04-19T05:47:17.571Z,10.69
2023-04-19T05:49:45.198Z,10.84
2023-04-19T05:52:12.894Z,10.94
2023-04-19T05:54:40.550Z,11.15
2023-04-19T05:57:10.552Z,11.28
2023-04-19T05:59:41.033Z,11.32
2023-04-19T06:02:12.251Z,11.28
2023-04-19T06:04:40.149Z,11.36
2023-04-19T06:07:17.482Z,11.56
2023-04-19T06:09:54.824Z,11.54
2023-04-19T06:12:22.451Z,11.44
2023-04-19T06:14:51.360Z,11.38
2023-04-19T06:17:23.450Z,11.33
2023-04-19T06:19:51.637Z,11.23
2023-04-19T06:22:19.380Z,11.26
2023-04-19T06:24:47.517Z,11.06
2023-04-19T06:27:17.517Z,11.11
2023-04-19T06:29:53.264Z,11.09
2023-04-19T06:32:22.876Z,11.00
2023-04-19T06:34:50.733Z,11.01
2023-04-19T06:37:19.357Z,10.98
2023-04-19T06:39:47.272Z,10.95
2023-04-19T06:42:14.885Z,10.88
2023-04-19T06:44:43.844Z,10.99
2023-04-19T06:47:11.707Z,10.97
2023-04-19T06:49:41.036Z,11.09
2023-04-19T06:52:09.201Z,11.10
2023-04-19T06:54:38.114Z,11.18
2023-04-19T06:57:06.004Z,11.27
2023-04-19T06:59:33.965Z,11.28
2023-04-19T07:02:01.659Z,11.22
2023-04-19T07:04:29.464Z,11.33
2023-04-19T07:07:09.889Z,11.20
2023-04-19T07:09:44.547Z,11.10
2023-04-19T07:12:12.520Z,11.18
2023-04-19T07:14:40.176Z,11.25
2023-04-19T07:17:07.913Z,11.24
2023-04-19T07:19:40.987Z,11.32
2023-04-19T07:22:14.866Z,11.33
2023-04-19T07:24:44.513Z,11.42
2023-04-19T07:27:14.502Z,11.53
2023-04-19T07:29:42.257Z,11.60
2023-04-19T07:32:10.287Z,11.80
2023-04-19T07:34:39.031Z,11.75
2023-04-19T07:37:06.670Z,11.65
2023-04-19T07:39:35.740Z,11.64
2023-04-19T07:42:03.316Z,11.67
2023-04-19T07:44:31.010Z,11.82
2023-04-19T07:46:58.764Z,12.12
2023-04-19T07:49:26.457Z,12.23
2023-04-19T07:51:54.186Z,12.20
2023-04-19T07:54:22.055Z,12.43
2023-04-19T07:56:52.737Z,12.54
2023-04-19T07:59:20.458Z,12.68
2023-04-19T08:01:48.677Z,12.97
2023-04-19T08:04:18.244Z,13.44
2023-04-19T08:06:46.899Z,13.39
2023-04-19T08:09:15.129Z,13.85
2023-04-19T08:11:43.200Z,14.00
2023-04-19T08:14:22.161Z,14.73
2023-04-19T08:19:32.276Z,14.60
2023-04-19T08:22:01.341Z,15.30
2023-04-19T08:24:29.250Z,15.13
2023-04-19T08:27:00.170Z,15.11
2023-04-19T08:29:29.597Z,15.11
2023-04-19T08:31:57.466Z,15.22
2023-04-19T08:34:25.840Z,14.80
2023-04-19T08:37:03.371Z,15.49
2023-04-19T08:39:34.028Z,15.20
2023-04-19T08:42:13.219Z,15.44
2023-04-19T08:45:22.593Z,15.13
2023-04-19T08:50:28.372Z,14.70
2023-04-19T08:53:09.084Z,14.91
2023-04-19T08:58:30.684Z,15.61
2023-04-19T09:01:04.729Z,14.87
2023-04-19T09:03:40.821Z,15.12
2023-04-19T09:06:12.675Z,15.06
2023-04-19T09:08:41.232Z,15.29
2023-04-19T09:11:09.655Z,14.92
2023-04-19T09:13:40.424Z,14.78
2023-04-19T09:16:33.732Z,15.00
2023-04-19T09:19:15.538Z,14.72
2023-04-19T09:21:53.028Z,14.38
2023-04-19T09:27:16.080Z,14.67
2023-04-19T09:29:54.673Z,14.82
2023-04-19T09:32:22.661Z,15.31
2023-04-19T09:34:57.022Z,15.64
2023-04-19T09:37:38.988Z,15.00
2023-04-19T09:40:34.032Z,14.71
2023-04-19T09:43:17.878Z,14.76
2023-04-19T09:45:51.616Z,15.17
2023-04-19T09:48:19.469Z,15.49
2023-04-19T09:51:00.818Z,14.71
2023-04-19T09:53:34.628Z,14.23
2023-04-19T09:56:04.151Z,13.57
2023-04-19T09:58:51.363Z,13.50
2023-04-19T10:01:26.680Z,13.46
2023-04-19T10:03:55.875Z,13.44
2023-04-19T10:09:15.388Z,13.67
2023-04-19T10:11:51.261Z,13.37
2023-04-19T10:14:24.553Z,13.36
2023-04-19T10:16:52.942Z,13.23
2023-04-19T10:19:23.146Z,13.67
2023-04-19T10:21:55.288Z,13.38
2023-04-19T10:24:24.477Z,13.14
2023-04-19T10:27:13.847Z,13.34
2023-04-19T10:30:01.866Z,13.82
2023-04-19T10:32:38.963Z,13.89
2023-04-19T10:35:12.878Z,14.14
2023-04-19T10:38:18.353Z,13.25
2023-04-19T10:40:59.908Z,13.05
2023-04-19T10:43:29.536Z,13.36
2023-04-19T10:46:01.988Z,13.24
2023-04-19T10:48:35.136Z,13.40
2023-04-19T10:51:03.946Z,13.57
2023-04-19T10:53:53.155Z,13.52
2023-04-19T10:56:43.684Z,13.51
2023-04-19T10:59:24.631Z,13.68
2023-04-19T11:01:55.050Z,13.56
2023-04-19T11:04:28.292Z,13.45
2023-04-19T11:07:07.347Z,13.83
2023-04-19T11:09:39.071Z,13.81
2023-04-19T11:12:08.819Z,13.88
2023-04-19T11:14:41.545Z,13.82
2023-04-19T11:17:17.002Z,13.95
2023-04-19T11:19:48.329Z,13.92
2023-04-19T11:22:18.785Z,13.61
2023-04-19T11:24:48.183Z,13.92
2023-04-19T11:27:16.409Z,13.86
2023-04-19T11:29:44.248Z,13.83
2023-04-19T11:32:12.252Z,13.90
2023-04-19T11:34:41.449Z,13.99
2023-04-19T11:37:10.879Z,13.64
2023-04-19T11:39:50.267Z,13.70
2023-04-19T11:42:21.803Z,13.56
2023-04-19T11:44:51.455Z,13.86
2023-04-19T11:47:19.884Z,14.08
2023-04-19T11:49:47.600Z,14.07
2023-04-19T11:52:21.994Z,14.09
2023-04-19T11:54:51.517Z,14.16
2023-04-19T11:57:28.867Z,13.61
2023-04-19T12:00:11.637Z,14.11
2023-04-19T12:02:41.722Z,13.90
2023-04-19T12:05:12.415Z,13.89
2023-04-19T12:08:01.499Z,14.06
2023-04-19T12:10:33.849Z,14.57
2023-04-19T12:13:18.175Z,14.78
2023-04-19T12:15:48.979Z,14.61
2023-04-19T12:18:16.785Z,14.42
2023-04-19T12:20:46.787Z,14.68
2023-04-19T12:23:15.764Z,14.53
2023-04-19T12:25:48.157Z,13.76
2023-04-19T12:28:16.539Z,13.96
2023-04-19T12:30:44.365Z,14.02
2023-04-19T12:33:12.542Z,14.52
2023-04-19T12:35:40.958Z,14.35
2023-04-19T12:38:09.508Z,14.37
2023-04-19T12:40:37.132Z,14.21
2023-04-19T12:43:07.934Z,14.37
2023-04-19T12:45:35.755Z,14.54
2023-04-19T12:48:03.425Z,14.31
2023-04-19T12:50:31.299Z,14.42
2023-04-19T12:52:59.147Z,14.49
2023-04-19T12:55:26.852Z,14.43
2023-04-19T12:57:54.948Z,14.92
2023-04-19T13:00:24.553Z,15.32
2023-04-19T13:02:52.549Z,15.43
2023-04-19T13:05:20.947Z,15.57
2023-04-19T13:07:48.509Z,15.26
2023-04-19T13:10:16.122Z,15.05
2023-04-19T13:12:43.832Z,15.19
2023-04-19T13:15:12.174Z,15.39
2023-04-19T13:17:44.350Z,15.26
2023-04-19T13:20:13.908Z,15.25
2023-04-19T13:22:41.703Z,14.82
2023-04-19T13:25:10.423Z,14.89
2023-04-19T13:27:38.299Z,14.95
2023-04-19T13:30:06.917Z,14.92
2023-04-19T13:32:38.540Z,14.67
2023-04-19T13:35:13.972Z,14.83
2023-04-19T13:37:44.376Z,14.70
2023-04-19T13:40:19.173Z,14.40
2023-04-19T13:42:54.976Z,14.19
2023-04-19T13:45:22.815Z,14.40
2023-04-19T13:47:52.835Z,14.65
2023-04-19T13:50:22.090Z,15.04
2023-04-19T13:52:49.750Z,14.99
2023-04-19T13:55:17.484Z,15.08
2023-04-19T13:57:45.073Z,14.97
2023-04-19T14:00:14.508Z,14.85
2023-04-19T14:02:45.918Z,14.38
2023-04-19T14:05:15.541Z,14.43
2023-04-19T14:07:44.465Z,14.63
2023-04-19T14:10:12.591Z,14.43
2023-04-19T14:12:43.523Z,14.87
2023-04-19T14:15:12.790Z,14.74
2023-04-19T14:17:40.461Z,14.97
2023-04-19T14:20:09.907Z,15.10
2023-04-19T14:22:37.688Z,14.76
2023-04-19T14:25:07.670Z,14.97
2023-04-19T14:27:35.657Z,15.02
2023-04-19T14:30:03.503Z,14.58
2023-04-19T14:32:31.319Z,14.49
2023-04-19T14:35:00.698Z,14.76
2023-04-19T14:37:28.886Z,14.41
2023-04-19T14:39:56.496Z,14.76
2023-04-19T14:42:25.916Z,15.30
2023-04-19T14:44:53.841Z,15.19
2023-04-19T14:47:21.970Z,15.00
2023-04-19T14:49:49.732Z,14.25
2023-04-19T14:52:17.796Z,13.97
2023-04-19T14:54:45.474Z,14.33
2023-04-19T14:57:13.953Z,14.14
2023-04-19T14:59:43.188Z,14.18
2023-04-19T15:02:13.207Z,14.14
2023-04-19T15:04:41.888Z,14.16
2023-04-19T15:07:09.873Z,14.68
2023-04-19T15:09:38.805Z,14.57
2023-04-19T15:12:06.803Z,14.71
2023-04-19T15:14:34.568Z,14.79
2023-04-19T15:17:04.030Z,14.58
2023-04-19T15:19:33.582Z,14.34
2023-04-19T15:22:06.016Z,14.25
2023-04-19T15:24:38.563Z,13.97
2023-04-19T15:27:23.520Z,14.13
2023-04-19T15:29:51.822Z,14.10
2023-04-19T15:32:21.837Z,13.95
2023-04-19T15:34:50.724Z,14.33
2023-04-19T15:37:28.294Z,14.14
2023-04-19T15:40:01.172Z,14.72
2023-04-19T15:42:29.169Z,14.44
2023-04-19T15:44:56.920Z,14.21
2023-04-19T15:47:28.390Z,14.02
2023-04-19T15:49:56.039Z,14.12
2023-04-19T15:52:24.838Z,13.84
2023-04-19T15:54:52.485Z,13.53
2023-04-19T15:57:20.137Z,13.41
2023-04-19T15:59:49.183Z,13.21
2023-04-19T16:02:17.623Z,13.47
2023-04-19T16:04:49.730Z,13.40
2023-04-19T16:07:23.514Z,13.56
2023-04-19T16:09:51.118Z,13.59
2023-04-19T16:12:21.624Z,13.77
2023-04-19T16:15:00.825Z,13.51
2023-04-19T16:17:30.884Z,13.30
2023-04-19T16:20:00.225Z,13.24
2023-04-19T16:22:31.180Z,13.42
2023-04-19T16:24:59.531Z,13.62
2023-04-19T16:27:31.237Z,13.62
2023-04-19T16:30:01.817Z,13.41
2023-04-19T16:32:29.664Z,13.41
2023-04-19T16:34:58.197Z,13.12
2023-04-19T16:37:27.234Z,13.17
2023-04-19T16:39:55.129Z,12.97
2023-04-19T16:42:22.777Z,12.91
2023-04-19T16:44:51.651Z,12.92
2023-04-19T16:47:19.257Z,12.85
2023-04-19T16:49:50.439Z,13.00
2023-04-19T16:52:20.185Z,12.94
2023-04-19T16:54:49.528Z,12.91
2023-04-19T16:57:17.504Z,12.90
2023-04-19T16:59:46.148Z,12.97
2023-04-19T17:02:14.126Z,12.79
2023-04-19T17:04:43.180Z,12.87
2023-04-19T17:07:11.601Z,12.65
2023-04-19T17:09:40.517Z,12.75
2023-04-19T17:12:09.675Z,12.55
2023-04-19T17:14:37.406Z,12.62
2023-04-19T17:17:05.391Z,12.38
2023-04-19T17:19:33.341Z,12.24
2023-04-19T17:22:05.261Z,12.36
2023-04-19T17:24:35.634Z,12.39
2023-04-19T17:27:22.982Z,12.33
2023-04-19T17:29:50.981Z,12.36
2023-04-19T17:32:26.731Z,12.15
2023-04-19T17:34:54.614Z,12.04
2023-04-19T17:37:22.347Z,12.15
2023-04-19T17:39:50.195Z,12.05
2023-04-19T17:42:21.634Z,12.05
2023-04-19T17:44:49.538Z,12.02
2023-04-19T17:47:21.709Z,11.87
2023-04-19T17:49:51.301Z,11.86
2023-04-19T17:52:21.067Z,11.73
2023-04-19T17:54:49.324Z,11.75
2023-04-19T17:57:16.940Z,11.73
2023-04-19T17:59:46.637Z,11.64
2023-04-19T18:02:24.982Z,11.54
2023-04-19T18:04:57.398Z,11.45
2023-04-19T18:07:27.187Z,11.59
2023-04-19T18:09:54.896Z,11.45
2023-04-19T18:12:24.901Z,11.43
2023-04-19T18:14:54.969Z,11.32
2023-04-19T18:17:23.363Z,11.26
2023-04-19T18:19:51.589Z,11.28
2023-04-19T18:22:19.887Z,11.17
2023-04-19T18:24:55.979Z,11.10
2023-04-19T18:27:23.807Z,11.11
2023-04-19T18:29:52.574Z,11.17
2023-04-19T18:32:26.881Z,10.96
2023-04-19T18:35:00.161Z,10.93
2023-04-19T18:37:27.922Z,10.82
2023-04-19T18:39:55.840Z,10.77
2023-04-19T18:42:24.524Z,10.83
2023-04-19T18:44:54.655Z,10.80
2023-04-19T18:47:26.348Z,10.82
2023-04-19T18:52:25.359Z,10.81
2023-04-19T18:54:56.140Z,10.85
2023-04-19T18:57:27.363Z,10.80
2023-04-19T18:59:56.737Z,10.65
2023-04-19T19:02:29.889Z,10.55
2023-04-19T19:05:01.684Z,10.57
2023-04-19T19:10:02.478Z,10.32
2023-04-19T19:12:33.434Z,10.41
2023-04-19T19:15:01.339Z,10.44
2023-04-19T19:17:30.886Z,10.41
2023-04-19T19:19:58.514Z,10.30
2023-04-19T19:22:28.850Z,10.24
2023-04-19T19:24:57.291Z,10.24
2023-04-19T19:27:25.831Z,10.18
2023-04-19T19:29:53.598Z,10.20
2023-04-19T19:32:21.572Z,10.19
2023-04-19T19:34:56.624Z,10.20
2023-04-19T19:37:31.821Z,10.13
2023-04-19T19:40:04.045Z,10.09
2023-04-19T19:42:32.897Z,10.04
2023-04-19T19:45:00.555Z,9.93
2023-04-19T19:47:30.537Z,10.02
2023-04-19T19:52:32.842Z,9.98
2023-04-19T19:55:00.907Z,9.91
2023-04-19T20:00:18.024Z,9.93
2023-04-19T20:05:23.032Z,9.96
2023-04-19T20:08:01.800Z,9.90
2023-04-19T20:10:31.835Z,9.83
2023-04-19T20:13:01.586Z,9.85
2023-04-19T20:15:30.086Z,9.78
2023-04-19T20:18:03.441Z,9.77
2023-04-19T20:20:32.911Z,9.56
2023-04-19T20:23:00.741Z,9.53
2023-04-19T20:25:28.349Z,9.56
2023-04-19T20:27:56.505Z,9.39
2023-04-19T20:30:24.333Z,9.48
2023-04-19T20:32:52.806Z,9.55
2023-04-19T20:35:21.108Z,9.51
2023-04-19T20:37:50.831Z,9.27
2023-04-19T20:40:18.637Z,9.25
2023-04-19T20:42:46.684Z,9.11
2023-04-19T20:45:15.177Z,9.09
2023-04-19T20:47:45.208Z,9.11
2023-04-19T20:50:13.535Z,9.04
2023-04-19T20:52:41.714Z,8.99
2023-04-19T20:55:11.494Z,8.94
2023-04-19T20:57:39.206Z,8.92
2023-04-19T21:00:09.282Z,9.03
2023-04-19T21:02:37.675Z,8.94
2023-04-19T21:05:06.316Z,8.72
2023-04-19T21:07:36.233Z,8.61
2023-04-19T21:10:03.948Z,8.54
2023-04-19T21:12:32.863Z,8.56
2023-04-19T21:15:00.415Z,8.63
2023-04-19T21:17:28.268Z,8.61
2023-04-19T21:19:55.886Z,8.65
2023-04-19T21:22:23.554Z,8.66
2023-04-19T21:24:51.176Z,8.68
2023-04-19T21:27:18.883Z,8.77
2023-04-19T21:29:47.866Z,8.80
2023-04-19T21:32:15.453Z,8.80
2023-04-19T21:34:43.190Z,8.91
2023-04-19T21:37:10.781Z,8.89
2023-04-19T21:39:38.716Z,8.86
2023-04-19T21:42:06.393Z,8.89
2023-04-19T21:44:34.479Z,8.85
2023-04-19T21:47:03.550Z,8.74
2023-04-19T21:49:31.890Z,8.79
2023-04-19T21:51:59.590Z,8.81
2023-04-19T21:54:34.078Z,8.75
2023-04-19T21:57:02.488Z,8.59
2023-04-19T21:59:30.814Z,8.59
2023-04-19T22:01:59.488Z,8.59
2023-04-19T22:04:30.563Z,8.51
2023-04-19T22:06:58.442Z,8.38
2023-04-19T22:09:26.025Z,8.39
2023-04-19T22:11:53.619Z,8.37
2023-04-19T22:14:22.984Z,8.41
2023-04-19T22:16:51.015Z,8.41
2023-04-19T22:19:18.992Z,8.22
2023-04-19T22:21:48.364Z,8.08
2023-04-19T22:24:16.608Z,8.07
2023-04-19T22:26:45.350Z,8.09
2023-04-19T22:29:12.969Z,7.88
2023-04-19T22:31:41.174Z,7.94
2023-04-19T22:34:08.998Z,7.78
2023-04-19T22:36:36.587Z,7.80
2023-04-19T22:39:05.861Z,7.82
2023-04-19T22:41:33.995Z,7.82
2023-04-19T22:44:01.728Z,7.87
2023-04-19T22:46:32.844Z,7.98
2023-04-19T22:49:00.888Z,7.99
2023-04-19T22:51:29.257Z,7.81
2023-04-19T22:54:00.173Z,7.72
2023-04-19T22:56:30.926Z,7.54
2023-04-19T22:58:59.564Z,7.59
2023-04-19T23:01:27.174Z,7.56
2023-04-19T23:03:55.284Z,7.52
2023-04-19T23:06:23.422Z,7.69
2023-04-19T23:08:51.998Z,7.82
2023-04-19T23:11:24.718Z,7.86
2023-04-19T23:13:53.931Z,7.69
2023-04-19T23:16:22.532Z,7.57
2023-04-19T23:18:56.314Z,7.51
2023-04-19T23:21:23.955Z,7.46
2023-04-19T23:23:51.664Z,7.35
2023-04-19T23:26:19.345Z,7.48
2023-04-19T23:28:47.032Z,7.41
2023-04-19T23:31:16.282Z,7.56
2023-04-19T23:33:51.332Z,7.32
2023-04-19T23:36:19.048Z,7.26
2023-04-19T23:38:48.308Z,7.17
2023-04-19T23:41:17.007Z,7.22
2023-04-19T23:43:51.543Z,7.40
2023-04-19T23:46:20.848Z,7.36
2023-04-19T23:48:48.465Z,7.30
2023-04-19T23:51:16.204Z,7.26
2023-04-19T23:56:31.548Z,6.88
2023-04-19T23:58:59.203Z,6.92
